sensor_id;sensor_type;location;lat;lon;timestamp;P1;durP1;ratioP1;P2;durP2;ratioP2
75454;SDS011;64035;48.358;2.122;2023-02-18T00:00:00;8.55;;;3.40;;
75454;SDS011;64035;48.358;2.122;2023-02-18T00:01:07;8.68;;;3.40;;
75454;SDS011;64035;48.358;2.122;2023-02-18T00:02:12;8.38;;;3.22;;
75454;SDS011;64035;48.358;2.122;2023-02-18T00:03:16;8.30;;;3.17;;
75454;SDS011;64035;48.358;2.122;2023-02-18T00:04:19;8.93;;;3.17;;
75454;SDS011;64035;48.358;2.122;2023-02-18T00:05:23;8.52;;;3.38;;
75454;SDS011;64035;48.358;2.122;2023-02-18T00:06:27;8.95;;;3.15;;
75454;SDS011;64035;48.358;2.122;2023-02-18T00:07:33;7.18;;;2.90;;
75454;SDS011;64035;48.358;2.122;2023-02-18T00:08:40;8.45;;;3.47;;
75454;SDS011;64035;48.358;2.122;2023-02-18T00:09:44;8.77;;;2.90;;
75454;SDS011;64035;48.358;2.122;2023-02-18T00:10:47;8.75;;;3.30;;
75454;SDS011;64035;48.358;2.122;2023-02-18T00:11:51;8.85;;;3.10;;
75454;SDS011;64035;48.358;2.122;2023-02-18T00:12:54;8.90;;;3.45;;
75454;SDS011;64035;48.358;2.122;2023-02-18T00:13:58;7.05;;;3.13;;
75454;SDS011;64035;48.358;2.122;2023-02-18T00:15:03;8.90;;;2.97;;
75454;SDS011;64035;48.358;2.122;2023-02-18T00:16:08;8.57;;;3.17;;
75454;SDS011;64035;48.358;2.122;2023-02-18T00:17:14;8.07;;;3.10;;
75454;SDS011;64035;48.358;2.122;2023-02-18T00:18:17;8.13;;;3.45;;
75454;SDS011;64035;48.358;2.122;2023-02-18T00:19:19;8.65;;;3.15;;
75454;SDS011;64035;48.358;2.122;2023-02-18T00:20:23;9.20;;;3.33;;
75454;SDS011;64035;48.358;2.122;2023-02-18T00:21:26;7.93;;;3.22;;
75454;SDS011;64035;48.358;2.122;2023-02-18T00:22:29;8.05;;;3.35;;
75454;SDS011;64035;48.358;2.122;2023-02-18T00:23:33;7.28;;;3.10;;
75454;SDS011;64035;48.358;2.122;2023-02-18T00:24:37;8.57;;;3.10;;
75454;SDS011;64035;48.358;2.122;2023-02-18T00:25:40;8.68;;;3.20;;
75454;SDS011;64035;48.358;2.122;2023-02-18T00:26:44;8.98;;;3.55;;
75454;SDS011;64035;48.358;2.122;2023-02-18T00:27:47;9.30;;;3.30;;
75454;SDS011;64035;48.358;2.122;2023-02-18T00:28:50;8.13;;;3.08;;
75454;SDS011;64035;48.358;2.122;2023-02-18T00:29:56;10.15;;;3.63;;
75454;SDS011;64035;48.358;2.122;2023-02-18T00:32:12;7.35;;;2.83;;
75454;SDS011;64035;48.358;2.122;2023-02-18T00:33:15;8.20;;;3.00;;
75454;SDS011;64035;48.358;2.122;2023-02-18T00:34:18;8.00;;;3.60;;
75454;SDS011;64035;48.358;2.122;2023-02-18T00:35:21;7.88;;;3.08;;
75454;SDS011;64035;48.358;2.122;2023-02-18T00:36:25;7.72;;;3.17;;
75454;SDS011;64035;48.358;2.122;2023-02-18T00:37:28;8.63;;;3.25;;
75454;SDS011;64035;48.358;2.122;2023-02-18T00:38:32;7.97;;;3.53;;
75454;SDS011;64035;48.358;2.122;2023-02-18T00:39:34;8.60;;;3.53;;
75454;SDS011;64035;48.358;2.122;2023-02-18T00:40:38;10.00;;;3.60;;
75454;SDS011;64035;48.358;2.122;2023-02-18T00:41:41;8.27;;;3.35;;
75454;SDS011;64035;48.358;2.122;2023-02-18T00:42:45;9.85;;;3.58;;
75454;SDS011;64035;48.358;2.122;2023-02-18T00:43:48;8.38;;;3.50;;
75454;SDS011;64035;48.358;2.122;2023-02-18T00:44:51;9.10;;;3.67;;
75454;SDS011;64035;48.358;2.122;2023-02-18T00:45:54;8.30;;;3.05;;
75454;SDS011;64035;48.358;2.122;2023-02-18T00:46:57;8.48;;;3.38;;
75454;SDS011;64035;48.358;2.122;2023-02-18T00:48:01;8.50;;;3.35;;
75454;SDS011;64035;48.358;2.122;2023-02-18T00:49:05;8.63;;;3.42;;
75454;SDS011;64035;48.358;2.122;2023-02-18T00:50:09;8.57;;;3.63;;
75454;SDS011;64035;48.358;2.122;2023-02-18T00:51:13;7.75;;;3.25;;
75454;SDS011;64035;48.358;2.122;2023-02-18T00:52:16;9.18;;;3.53;;
75454;SDS011;64035;48.358;2.122;2023-02-18T00:53:19;8.90;;;3.65;;
75454;SDS011;64035;48.358;2.122;2023-02-18T00:54:24;9.13;;;3.70;;
75454;SDS011;64035;48.358;2.122;2023-02-18T00:55:27;7.70;;;3.10;;
75454;SDS011;64035;48.358;2.122;2023-02-18T00:56:30;8.40;;;3.22;;
75454;SDS011;64035;48.358;2.122;2023-02-18T00:57:34;8.40;;;3.25;;
75454;SDS011;64035;48.358;2.122;2023-02-18T00:58:37;8.10;;;3.30;;
75454;SDS011;64035;48.358;2.122;2023-02-18T00:59:40;8.57;;;3.10;;
75454;SDS011;64035;48.358;2.122;2023-02-18T01:00:43;7.93;;;3.22;;
75454;SDS011;64035;48.358;2.122;2023-02-18T01:01:48;8.95;;;3.63;;
75454;SDS011;64035;48.358;2.122;2023-02-18T01:02:51;7.72;;;2.83;;
75454;SDS011;64035;48.358;2.122;2023-02-18T01:03:58;7.60;;;3.25;;
75454;SDS011;64035;48.358;2.122;2023-02-18T01:05:01;9.05;;;3.55;;
75454;SDS011;64035;48.358;2.122;2023-02-18T01:06:05;8.07;;;3.20;;
75454;SDS011;64035;48.358;2.122;2023-02-18T01:07:09;8.77;;;3.70;;
75454;SDS011;64035;48.358;2.122;2023-02-18T01:08:12;8.82;;;3.10;;
75454;SDS011;64035;48.358;2.122;2023-02-18T01:09:15;8.60;;;3.30;;
75454;SDS011;64035;48.358;2.122;2023-02-18T01:10:20;9.55;;;3.28;;
75454;SDS011;64035;48.358;2.122;2023-02-18T01:11:23;8.98;;;3.72;;
75454;SDS011;64035;48.358;2.122;2023-02-18T01:12:26;8.95;;;3.30;;
75454;SDS011;64035;48.358;2.122;2023-02-18T01:13:30;9.32;;;3.47;;
75454;SDS011;64035;48.358;2.122;2023-02-18T01:14:34;7.97;;;3.28;;
75454;SDS011;64035;48.358;2.122;2023-02-18T01:15:38;8.55;;;3.53;;
75454;SDS011;64035;48.358;2.122;2023-02-18T01:16:42;7.78;;;3.20;;
75454;SDS011;64035;48.358;2.122;2023-02-18T01:17:45;8.43;;;3.13;;
75454;SDS011;64035;48.358;2.122;2023-02-18T01:18:48;7.20;;;2.95;;
75454;SDS011;64035;48.358;2.122;2023-02-18T01:19:51;8.85;;;3.80;;
75454;SDS011;64035;48.358;2.122;2023-02-18T01:20:54;9.07;;;3.28;;
75454;SDS011;64035;48.358;2.122;2023-02-18T01:21:57;8.70;;;3.38;;
75454;SDS011;64035;48.358;2.122;2023-02-18T01:23:00;9.65;;;3.20;;
75454;SDS011;64035;48.358;2.122;2023-02-18T01:24:04;8.82;;;3.05;;
75454;SDS011;64035;48.358;2.122;2023-02-18T01:25:09;9.10;;;3.40;;
75454;SDS011;64035;48.358;2.122;2023-02-18T01:26:12;7.68;;;3.15;;
75454;SDS011;64035;48.358;2.122;2023-02-18T01:27:15;8.88;;;3.53;;
75454;SDS011;64035;48.358;2.122;2023-02-18T01:28:19;10.32;;;3.63;;
75454;SDS011;64035;48.358;2.122;2023-02-18T01:30:25;9.68;;;3.47;;
75454;SDS011;64035;48.358;2.122;2023-02-18T01:31:29;7.45;;;2.90;;
75454;SDS011;64035;48.358;2.122;2023-02-18T01:32:34;8.63;;;3.55;;
75454;SDS011;64035;48.358;2.122;2023-02-18T01:33:38;9.23;;;3.05;;
75454;SDS011;64035;48.358;2.122;2023-02-18T01:34:42;9.38;;;3.88;;
75454;SDS011;64035;48.358;2.122;2023-02-18T01:35:45;7.53;;;3.05;;
75454;SDS011;64035;48.358;2.122;2023-02-18T01:36:49;9.10;;;3.30;;
75454;SDS011;64035;48.358;2.122;2023-02-18T01:37:53;8.70;;;3.53;;
75454;SDS011;64035;48.358;2.122;2023-02-18T01:38:56;9.38;;;3.47;;
75454;SDS011;64035;48.358;2.122;2023-02-18T01:39:59;9.07;;;3.10;;
75454;SDS011;64035;48.358;2.122;2023-02-18T01:41:02;9.20;;;3.53;;
75454;SDS011;64035;48.358;2.122;2023-02-18T01:42:06;9.18;;;3.90;;
75454;SDS011;64035;48.358;2.122;2023-02-18T01:43:11;9.30;;;3.80;;
75454;SDS011;64035;48.358;2.122;2023-02-18T01:44:16;9.23;;;3.58;;
75454;SDS011;64035;48.358;2.122;2023-02-18T01:46:40;8.95;;;3.78;;
75454;SDS011;64035;48.358;2.122;2023-02-18T01:47:43;8.70;;;3.63;;
75454;SDS011;64035;48.358;2.122;2023-02-18T01:50:00;8.35;;;3.45;;
75454;SDS011;64035;48.358;2.122;2023-02-18T01:52:11;9.88;;;4.07;;
75454;SDS011;64035;48.358;2.122;2023-02-18T01:53:24;9.60;;;3.50;;
75454;SDS011;64035;48.358;2.122;2023-02-18T01:54:37;9.93;;;3.72;;
75454;SDS011;64035;48.358;2.122;2023-02-18T01:55:42;10.15;;;3.80;;
75454;SDS011;64035;48.358;2.122;2023-02-18T01:57:52;10.93;;;3.83;;
75454;SDS011;64035;48.358;2.122;2023-02-18T01:58:57;9.45;;;3.58;;
75454;SDS011;64035;48.358;2.122;2023-02-18T02:00:05;8.63;;;3.45;;
75454;SDS011;64035;48.358;2.122;2023-02-18T02:01:17;10.40;;;3.83;;
75454;SDS011;64035;48.358;2.122;2023-02-18T02:02:21;8.88;;;3.67;;
75454;SDS011;64035;48.358;2.122;2023-02-18T02:03:28;9.07;;;3.92;;
75454;SDS011;64035;48.358;2.122;2023-02-18T02:04:31;10.40;;;3.83;;
75454;SDS011;64035;48.358;2.122;2023-02-18T02:05:35;9.82;;;3.78;;
75454;SDS011;64035;48.358;2.122;2023-02-18T02:06:38;8.73;;;3.72;;
75454;SDS011;64035;48.358;2.122;2023-02-18T02:07:41;9.60;;;3.70;;
75454;SDS011;64035;48.358;2.122;2023-02-18T02:08:46;8.98;;;3.63;;
75454;SDS011;64035;48.358;2.122;2023-02-18T02:09:52;9.25;;;3.80;;
75454;SDS011;64035;48.358;2.122;2023-02-18T02:11:01;8.95;;;3.50;;
75454;SDS011;64035;48.358;2.122;2023-02-18T02:16:05;10.05;;;3.70;;
75454;SDS011;64035;48.358;2.122;2023-02-18T02:20:23;9.70;;;4.10;;
75454;SDS011;64035;48.358;2.122;2023-02-18T02:22:00;9.43;;;3.80;;
75454;SDS011;64035;48.358;2.122;2023-02-18T02:26:15;10.20;;;3.88;;
75454;SDS011;64035;48.358;2.122;2023-02-18T02:33:53;9.07;;;3.72;;
75454;SDS011;64035;48.358;2.122;2023-02-18T02:36:39;11.38;;;4.40;;
75454;SDS011;64035;48.358;2.122;2023-02-18T02:40:32;11.90;;;3.85;;
75454;SDS011;64035;48.358;2.122;2023-02-18T02:42:18;8.05;;;3.40;;
75454;SDS011;64035;48.358;2.122;2023-02-18T02:43:30;7.78;;;3.13;;
75454;SDS011;64035;48.358;2.122;2023-02-18T02:45:03;9.57;;;3.53;;
75454;SDS011;64035;48.358;2.122;2023-02-18T02:48:21;8.60;;;3.45;;
75454;SDS011;64035;48.358;2.122;2023-02-18T02:50:12;8.88;;;3.45;;
75454;SDS011;64035;48.358;2.122;2023-02-18T02:51:32;7.90;;;3.55;;
75454;SDS011;64035;48.358;2.122;2023-02-18T02:52:47;9.48;;;3.38;;
75454;SDS011;64035;48.358;2.122;2023-02-18T02:54:07;8.15;;;3.05;;
75454;SDS011;64035;48.358;2.122;2023-02-18T02:55:13;8.48;;;3.22;;
75454;SDS011;64035;48.358;2.122;2023-02-18T02:56:19;9.40;;;3.08;;
75454;SDS011;64035;48.358;2.122;2023-02-18T02:58:36;8.63;;;3.20;;
75454;SDS011;64035;48.358;2.122;2023-02-18T02:59:40;7.38;;;2.97;;
75454;SDS011;64035;48.358;2.122;2023-02-18T03:10:48;8.43;;;2.80;;
75454;SDS011;64035;48.358;2.122;2023-02-18T03:11:57;7.13;;;2.20;;
75454;SDS011;64035;48.358;2.122;2023-02-18T03:14:43;6.93;;;2.28;;
75454;SDS011;64035;48.358;2.122;2023-02-18T03:16:06;7.85;;;2.22;;
75454;SDS011;64035;48.358;2.122;2023-02-18T03:17:19;7.07;;;2.28;;
75454;SDS011;64035;48.358;2.122;2023-02-18T03:18:48;6.78;;;2.40;;
75454;SDS011;64035;48.358;2.122;2023-02-18T03:22:45;7.07;;;2.20;;
75454;SDS011;64035;48.358;2.122;2023-02-18T03:23:55;5.53;;;2.22;;
75454;SDS011;64035;48.358;2.122;2023-02-18T03:26:06;5.80;;;1.88;;
75454;SDS011;64035;48.358;2.122;2023-02-18T03:27:15;6.45;;;2.17;;
75454;SDS011;64035;48.358;2.122;2023-02-18T03:28:23;8.32;;;2.30;;
75454;SDS011;64035;48.358;2.122;2023-02-18T03:29:30;6.40;;;2.05;;
75454;SDS011;64035;48.358;2.122;2023-02-18T03:30:42;6.57;;;1.92;;
75454;SDS011;64035;48.358;2.122;2023-02-18T03:31:52;6.55;;;2.15;;
75454;SDS011;64035;48.358;2.122;2023-02-18T03:33:02;6.57;;;2.10;;
75454;SDS011;64035;48.358;2.122;2023-02-18T03:34:11;5.53;;;1.98;;
75454;SDS011;64035;48.358;2.122;2023-02-18T03:35:19;5.20;;;1.70;;
75454;SDS011;64035;48.358;2.122;2023-02-18T03:36:22;7.35;;;2.30;;
75454;SDS011;64035;48.358;2.122;2023-02-18T03:39:39;5.57;;;1.88;;
75454;SDS011;64035;48.358;2.122;2023-02-18T03:40:46;5.65;;;1.90;;
75454;SDS011;64035;48.358;2.122;2023-02-18T03:41:49;6.53;;;1.95;;
75454;SDS011;64035;48.358;2.122;2023-02-18T03:42:52;4.88;;;1.60;;
75454;SDS011;64035;48.358;2.122;2023-02-18T03:43:59;5.97;;;2.10;;
75454;SDS011;64035;48.358;2.122;2023-02-18T03:45:04;6.60;;;2.00;;
75454;SDS011;64035;48.358;2.122;2023-02-18T03:46:08;6.97;;;2.22;;
75454;SDS011;64035;48.358;2.122;2023-02-18T03:47:11;6.25;;;2.17;;
75454;SDS011;64035;48.358;2.122;2023-02-18T03:48:14;6.68;;;1.77;;
75454;SDS011;64035;48.358;2.122;2023-02-18T03:49:20;6.13;;;1.80;;
75454;SDS011;64035;48.358;2.122;2023-02-18T03:50:23;5.85;;;2.00;;
75454;SDS011;64035;48.358;2.122;2023-02-18T03:51:27;5.45;;;2.00;;
75454;SDS011;64035;48.358;2.122;2023-02-18T03:52:30;6.32;;;2.00;;
75454;SDS011;64035;48.358;2.122;2023-02-18T03:53:33;6.03;;;2.10;;
75454;SDS011;64035;48.358;2.122;2023-02-18T03:54:36;5.28;;;1.80;;
75454;SDS011;64035;48.358;2.122;2023-02-18T03:55:39;6.63;;;2.13;;
75454;SDS011;64035;48.358;2.122;2023-02-18T03:56:42;5.18;;;1.80;;
75454;SDS011;64035;48.358;2.122;2023-02-18T03:57:45;4.13;;;1.40;;
75454;SDS011;64035;48.358;2.122;2023-02-18T03:58:49;5.25;;;1.70;;
75454;SDS011;64035;48.358;2.122;2023-02-18T03:59:52;6.40;;;1.95;;
75454;SDS011;64035;48.358;2.122;2023-02-18T04:00:55;6.20;;;1.85;;
75454;SDS011;64035;48.358;2.122;2023-02-18T04:01:57;5.10;;;1.67;;
75454;SDS011;64035;48.358;2.122;2023-02-18T04:03:00;6.13;;;1.90;;
75454;SDS011;64035;48.358;2.122;2023-02-18T04:04:04;4.75;;;1.80;;
75454;SDS011;64035;48.358;2.122;2023-02-18T04:05:07;4.60;;;1.77;;
75454;SDS011;64035;48.358;2.122;2023-02-18T04:06:11;5.03;;;1.77;;
75454;SDS011;64035;48.358;2.122;2023-02-18T04:07:14;5.47;;;1.75;;
75454;SDS011;64035;48.358;2.122;2023-02-18T04:08:17;6.65;;;2.13;;
75454;SDS011;64035;48.358;2.122;2023-02-18T04:09:20;6.10;;;1.92;;
75454;SDS011;64035;48.358;2.122;2023-02-18T04:10:23;5.72;;;1.83;;
75454;SDS011;64035;48.358;2.122;2023-02-18T04:11:26;4.35;;;1.60;;
75454;SDS011;64035;48.358;2.122;2023-02-18T04:12:30;6.43;;;1.98;;
75454;SDS011;64035;48.358;2.122;2023-02-18T04:13:33;5.10;;;1.80;;
75454;SDS011;64035;48.358;2.122;2023-02-18T04:14:36;4.40;;;1.58;;
75454;SDS011;64035;48.358;2.122;2023-02-18T04:15:39;6.43;;;1.98;;
75454;SDS011;64035;48.358;2.122;2023-02-18T04:16:42;5.22;;;1.80;;
75454;SDS011;64035;48.358;2.122;2023-02-18T04:17:46;5.60;;;1.83;;
75454;SDS011;64035;48.358;2.122;2023-02-18T04:18:49;5.95;;;1.75;;
75454;SDS011;64035;48.358;2.122;2023-02-18T04:19:52;6.28;;;2.05;;
75454;SDS011;64035;48.358;2.122;2023-02-18T04:20:55;5.50;;;2.10;;
75454;SDS011;64035;48.358;2.122;2023-02-18T04:21:58;6.32;;;2.08;;
75454;SDS011;64035;48.358;2.122;2023-02-18T04:23:02;6.97;;;2.40;;
75454;SDS011;64035;48.358;2.122;2023-02-18T04:24:05;5.20;;;1.80;;
75454;SDS011;64035;48.358;2.122;2023-02-18T04:25:08;6.15;;;1.98;;
75454;SDS011;64035;48.358;2.122;2023-02-18T04:26:11;5.38;;;1.92;;
75454;SDS011;64035;48.358;2.122;2023-02-18T04:27:14;5.68;;;1.92;;
75454;SDS011;64035;48.358;2.122;2023-02-18T04:28:18;5.85;;;1.83;;
75454;SDS011;64035;48.358;2.122;2023-02-18T04:29:21;5.28;;;1.98;;
75454;SDS011;64035;48.358;2.122;2023-02-18T04:30:24;6.57;;;2.00;;
75454;SDS011;64035;48.358;2.122;2023-02-18T04:31:27;5.68;;;1.67;;
75454;SDS011;64035;48.358;2.122;2023-02-18T04:32:31;4.68;;;1.92;;
75454;SDS011;64035;48.358;2.122;2023-02-18T04:33:34;5.30;;;2.03;;
75454;SDS011;64035;48.358;2.122;2023-02-18T04:34:37;5.40;;;1.98;;
75454;SDS011;64035;48.358;2.122;2023-02-18T04:35:40;5.70;;;2.13;;
75454;SDS011;64035;48.358;2.122;2023-02-18T04:36:43;6.05;;;2.08;;
75454;SDS011;64035;48.358;2.122;2023-02-18T04:37:46;5.53;;;1.90;;
75454;SDS011;64035;48.358;2.122;2023-02-18T04:38:49;4.85;;;1.77;;
75454;SDS011;64035;48.358;2.122;2023-02-18T04:39:52;6.38;;;2.47;;
75454;SDS011;64035;48.358;2.122;2023-02-18T04:40:55;6.72;;;2.10;;
75454;SDS011;64035;48.358;2.122;2023-02-18T04:41:58;6.03;;;2.10;;
75454;SDS011;64035;48.358;2.122;2023-02-18T04:43:01;5.93;;;2.22;;
75454;SDS011;64035;48.358;2.122;2023-02-18T04:44:05;5.35;;;1.98;;
75454;SDS011;64035;48.358;2.122;2023-02-18T04:45:08;6.13;;;2.35;;
75454;SDS011;64035;48.358;2.122;2023-02-18T04:46:11;6.22;;;2.08;;
75454;SDS011;64035;48.358;2.122;2023-02-18T04:47:14;6.47;;;2.30;;
75454;SDS011;64035;48.358;2.122;2023-02-18T04:48:16;6.82;;;2.17;;
75454;SDS011;64035;48.358;2.122;2023-02-18T04:49:19;5.80;;;2.05;;
75454;SDS011;64035;48.358;2.122;2023-02-18T04:50:22;6.03;;;2.20;;
75454;SDS011;64035;48.358;2.122;2023-02-18T04:51:25;6.22;;;2.38;;
75454;SDS011;64035;48.358;2.122;2023-02-18T04:52:28;5.28;;;2.13;;
75454;SDS011;64035;48.358;2.122;2023-02-18T04:53:31;6.97;;;2.28;;
75454;SDS011;64035;48.358;2.122;2023-02-18T04:54:34;5.40;;;2.40;;
75454;SDS011;64035;48.358;2.122;2023-02-18T04:55:38;6.53;;;2.35;;
75454;SDS011;64035;48.358;2.122;2023-02-18T04:56:41;6.32;;;2.20;;
75454;SDS011;64035;48.358;2.122;2023-02-18T04:57:44;7.22;;;2.40;;
75454;SDS011;64035;48.358;2.122;2023-02-18T04:58:47;6.47;;;2.05;;
75454;SDS011;64035;48.358;2.122;2023-02-18T04:59:50;6.55;;;2.22;;
75454;SDS011;64035;48.358;2.122;2023-02-18T05:00:53;6.50;;;2.55;;
75454;SDS011;64035;48.358;2.122;2023-02-18T05:02:00;7.93;;;2.90;;
75454;SDS011;64035;48.358;2.122;2023-02-18T05:03:03;7.43;;;2.65;;
75454;SDS011;64035;48.358;2.122;2023-02-18T05:04:06;5.82;;;2.50;;
75454;SDS011;64035;48.358;2.122;2023-02-18T05:05:09;6.78;;;2.92;;
75454;SDS011;64035;48.358;2.122;2023-02-18T05:06:13;8.02;;;3.53;;
75454;SDS011;64035;48.358;2.122;2023-02-18T05:07:16;9.15;;;3.30;;
75454;SDS011;64035;48.358;2.122;2023-02-18T05:08:19;7.78;;;3.17;;
75454;SDS011;64035;48.358;2.122;2023-02-18T05:09:22;8.45;;;3.25;;
75454;SDS011;64035;48.358;2.122;2023-02-18T05:10:25;7.38;;;3.08;;
75454;SDS011;64035;48.358;2.122;2023-02-18T05:11:28;7.57;;;3.30;;
75454;SDS011;64035;48.358;2.122;2023-02-18T05:12:31;7.60;;;2.83;;
75454;SDS011;64035;48.358;2.122;2023-02-18T05:13:34;6.65;;;2.83;;
75454;SDS011;64035;48.358;2.122;2023-02-18T05:14:37;7.53;;;3.08;;
75454;SDS011;64035;48.358;2.122;2023-02-18T05:15:40;7.05;;;2.97;;
75454;SDS011;64035;48.358;2.122;2023-02-18T05:16:43;8.02;;;3.10;;
75454;SDS011;64035;48.358;2.122;2023-02-18T05:17:46;7.15;;;2.67;;
75454;SDS011;64035;48.358;2.122;2023-02-18T05:18:49;5.85;;;2.17;;
75454;SDS011;64035;48.358;2.122;2023-02-18T05:19:52;7.80;;;2.90;;
75454;SDS011;64035;48.358;2.122;2023-02-18T05:20:55;7.13;;;2.78;;
75454;SDS011;64035;48.358;2.122;2023-02-18T05:21:59;6.28;;;2.55;;
75454;SDS011;64035;48.358;2.122;2023-02-18T05:23:02;7.32;;;2.70;;
75454;SDS011;64035;48.358;2.122;2023-02-18T05:24:05;6.57;;;2.58;;
75454;SDS011;64035;48.358;2.122;2023-02-18T05:25:10;6.95;;;2.90;;
75454;SDS011;64035;48.358;2.122;2023-02-18T05:26:12;7.63;;;2.97;;
75454;SDS011;64035;48.358;2.122;2023-02-18T05:27:15;8.57;;;3.55;;
75454;SDS011;64035;48.358;2.122;2023-02-18T05:28:18;9.38;;;3.78;;
75454;SDS011;64035;48.358;2.122;2023-02-18T05:29:21;8.02;;;3.40;;
75454;SDS011;64035;48.358;2.122;2023-02-18T05:30:24;8.13;;;3.05;;
75454;SDS011;64035;48.358;2.122;2023-02-18T05:31:27;7.55;;;3.10;;
75454;SDS011;64035;48.358;2.122;2023-02-18T05:32:30;7.68;;;3.00;;
75454;SDS011;64035;48.358;2.122;2023-02-18T05:33:34;7.00;;;2.83;;
75454;SDS011;64035;48.358;2.122;2023-02-18T05:34:37;6.75;;;2.72;;
75454;SDS011;64035;48.358;2.122;2023-02-18T05:35:40;6.32;;;2.65;;
75454;SDS011;64035;48.358;2.122;2023-02-18T05:36:43;6.70;;;2.80;;
75454;SDS011;64035;48.358;2.122;2023-02-18T05:37:46;7.07;;;2.85;;
75454;SDS011;64035;48.358;2.122;2023-02-18T05:38:49;6.50;;;2.80;;
75454;SDS011;64035;48.358;2.122;2023-02-18T05:39:52;7.05;;;2.97;;
75454;SDS011;64035;48.358;2.122;2023-02-18T05:40:55;5.55;;;2.42;;
75454;SDS011;64035;48.358;2.122;2023-02-18T05:41:58;7.93;;;2.92;;
75454;SDS011;64035;48.358;2.122;2023-02-18T05:43:01;7.68;;;3.15;;
75454;SDS011;64035;48.358;2.122;2023-02-18T05:44:04;6.78;;;2.53;;
75454;SDS011;64035;48.358;2.122;2023-02-18T05:45:26;8.88;;;3.38;;
75454;SDS011;64035;48.358;2.122;2023-02-18T05:46:29;7.68;;;3.20;;
75454;SDS011;64035;48.358;2.122;2023-02-18T05:47:32;7.63;;;3.20;;
75454;SDS011;64035;48.358;2.122;2023-02-18T05:48:35;8.07;;;3.53;;
75454;SDS011;64035;48.358;2.122;2023-02-18T05:49:39;7.88;;;3.00;;
75454;SDS011;64035;48.358;2.122;2023-02-18T05:50:43;8.35;;;3.22;;
75454;SDS011;64035;48.358;2.122;2023-02-18T05:51:45;8.23;;;3.25;;
75454;SDS011;64035;48.358;2.122;2023-02-18T05:52:49;7.88;;;3.20;;
75454;SDS011;64035;48.358;2.122;2023-02-18T05:53:52;7.43;;;3.10;;
75454;SDS011;64035;48.358;2.122;2023-02-18T05:54:55;7.97;;;3.40;;
75454;SDS011;64035;48.358;2.122;2023-02-18T05:55:58;7.70;;;3.30;;
75454;SDS011;64035;48.358;2.122;2023-02-18T05:57:01;8.13;;;3.08;;
75454;SDS011;64035;48.358;2.122;2023-02-18T05:58:05;7.75;;;2.90;;
75454;SDS011;64035;48.358;2.122;2023-02-18T05:59:08;8.40;;;3.38;;
75454;SDS011;64035;48.358;2.122;2023-02-18T06:00:11;8.27;;;3.08;;
75454;SDS011;64035;48.358;2.122;2023-02-18T06:01:14;9.18;;;3.60;;
75454;SDS011;64035;48.358;2.122;2023-02-18T06:02:19;8.57;;;3.50;;
75454;SDS011;64035;48.358;2.122;2023-02-18T06:03:22;8.10;;;3.13;;
75454;SDS011;64035;48.358;2.122;2023-02-18T06:04:25;9.00;;;3.78;;
75454;SDS011;64035;48.358;2.122;2023-02-18T06:05:28;8.23;;;3.22;;
75454;SDS011;64035;48.358;2.122;2023-02-18T06:06:32;7.82;;;3.65;;
75454;SDS011;64035;48.358;2.122;2023-02-18T06:07:36;8.32;;;3.58;;
75454;SDS011;64035;48.358;2.122;2023-02-18T06:08:40;7.90;;;3.13;;
75454;SDS011;64035;48.358;2.122;2023-02-18T06:09:43;8.65;;;3.15;;
75454;SDS011;64035;48.358;2.122;2023-02-18T06:10:46;9.15;;;3.75;;
75454;SDS011;64035;48.358;2.122;2023-02-18T06:11:49;10.93;;;3.35;;
75454;SDS011;64035;48.358;2.122;2023-02-18T06:12:53;8.55;;;3.40;;
75454;SDS011;64035;48.358;2.122;2023-02-18T06:13:56;8.10;;;3.20;;
75454;SDS011;64035;48.358;2.122;2023-02-18T06:15:00;11.23;;;3.65;;
75454;SDS011;64035;48.358;2.122;2023-02-18T06:16:04;9.15;;;3.85;;
75454;SDS011;64035;48.358;2.122;2023-02-18T06:17:08;8.05;;;3.08;;
75454;SDS011;64035;48.358;2.122;2023-02-18T06:19:14;7.13;;;2.72;;
75454;SDS011;64035;48.358;2.122;2023-02-18T06:20:17;7.47;;;2.83;;
75454;SDS011;64035;48.358;2.122;2023-02-18T06:21:21;8.77;;;3.25;;
75454;SDS011;64035;48.358;2.122;2023-02-18T06:22:24;8.85;;;3.08;;
75454;SDS011;64035;48.358;2.122;2023-02-18T06:23:27;7.45;;;2.97;;
75454;SDS011;64035;48.358;2.122;2023-02-18T06:24:30;8.68;;;2.90;;
75454;SDS011;64035;48.358;2.122;2023-02-18T06:25:33;7.68;;;2.85;;
75454;SDS011;64035;48.358;2.122;2023-02-18T06:26:37;7.28;;;2.75;;
75454;SDS011;64035;48.358;2.122;2023-02-18T06:27:40;8.18;;;2.70;;
75454;SDS011;64035;48.358;2.122;2023-02-18T06:28:43;8.57;;;2.85;;
75454;SDS011;64035;48.358;2.122;2023-02-18T06:29:46;8.77;;;2.70;;
75454;SDS011;64035;48.358;2.122;2023-02-18T06:30:49;6.35;;;2.55;;
75454;SDS011;64035;48.358;2.122;2023-02-18T06:31:53;6.50;;;2.58;;
75454;SDS011;64035;48.358;2.122;2023-02-18T06:32:56;6.85;;;2.67;;
75454;SDS011;64035;48.358;2.122;2023-02-18T06:33:59;7.40;;;2.70;;
75454;SDS011;64035;48.358;2.122;2023-02-18T06:35:02;6.97;;;2.47;;
75454;SDS011;64035;48.358;2.122;2023-02-18T06:36:05;10.27;;;3.10;;
75454;SDS011;64035;48.358;2.122;2023-02-18T06:37:10;7.50;;;2.88;;
75454;SDS011;64035;48.358;2.122;2023-02-18T06:38:12;7.57;;;3.05;;
75454;SDS011;64035;48.358;2.122;2023-02-18T06:39:15;8.45;;;3.03;;
75454;SDS011;64035;48.358;2.122;2023-02-18T06:40:18;8.90;;;3.20;;
75454;SDS011;64035;48.358;2.122;2023-02-18T06:41:21;9.23;;;2.92;;
75454;SDS011;64035;48.358;2.122;2023-02-18T06:42:25;10.18;;;3.20;;
75454;SDS011;64035;48.358;2.122;2023-02-18T06:43:28;8.27;;;3.25;;
75454;SDS011;64035;48.358;2.122;2023-02-18T06:44:31;8.77;;;3.70;;
75454;SDS011;64035;48.358;2.122;2023-02-18T06:45:34;8.05;;;3.28;;
75454;SDS011;64035;48.358;2.122;2023-02-18T06:46:37;10.40;;;3.47;;
75454;SDS011;64035;48.358;2.122;2023-02-18T06:47:40;9.68;;;3.50;;
75454;SDS011;64035;48.358;2.122;2023-02-18T06:48:43;9.38;;;3.97;;
75454;SDS011;64035;48.358;2.122;2023-02-18T06:49:46;11.32;;;4.35;;
75454;SDS011;64035;48.358;2.122;2023-02-18T06:50:49;10.40;;;4.28;;
75454;SDS011;64035;48.358;2.122;2023-02-18T06:51:53;8.82;;;3.50;;
75454;SDS011;64035;48.358;2.122;2023-02-18T06:52:56;8.95;;;3.30;;
75454;SDS011;64035;48.358;2.122;2023-02-18T06:54:00;8.23;;;3.15;;
75454;SDS011;64035;48.358;2.122;2023-02-18T06:55:04;9.27;;;3.17;;
75454;SDS011;64035;48.358;2.122;2023-02-18T06:56:07;8.50;;;3.28;;
75454;SDS011;64035;48.358;2.122;2023-02-18T06:57:10;8.18;;;3.10;;
75454;SDS011;64035;48.358;2.122;2023-02-18T06:58:14;6.93;;;2.75;;
75454;SDS011;64035;48.358;2.122;2023-02-18T07:00:20;8.05;;;2.83;;
75454;SDS011;64035;48.358;2.122;2023-02-18T07:01:24;7.68;;;2.42;;
75454;SDS011;64035;48.358;2.122;2023-02-18T07:02:27;6.88;;;2.50;;
75454;SDS011;64035;48.358;2.122;2023-02-18T07:03:31;7.10;;;2.63;;
75454;SDS011;64035;48.358;2.122;2023-02-18T07:04:34;6.60;;;2.63;;
75454;SDS011;64035;48.358;2.122;2023-02-18T07:05:37;7.28;;;2.45;;
75454;SDS011;64035;48.358;2.122;2023-02-18T07:06:41;5.55;;;2.05;;
75454;SDS011;64035;48.358;2.122;2023-02-18T07:07:44;6.03;;;2.10;;
75454;SDS011;64035;48.358;2.122;2023-02-18T07:08:47;8.40;;;2.10;;
75454;SDS011;64035;48.358;2.122;2023-02-18T07:09:51;6.28;;;2.13;;
75454;SDS011;64035;48.358;2.122;2023-02-18T07:10:54;7.38;;;1.95;;
75454;SDS011;64035;48.358;2.122;2023-02-18T07:11:57;6.82;;;2.78;;
75454;SDS011;64035;48.358;2.122;2023-02-18T07:13:00;5.28;;;2.13;;
75454;SDS011;64035;48.358;2.122;2023-02-18T07:14:03;6.18;;;1.98;;
75454;SDS011;64035;48.358;2.122;2023-02-18T07:15:07;6.53;;;2.22;;
75454;SDS011;64035;48.358;2.122;2023-02-18T07:16:10;6.30;;;2.30;;
75454;SDS011;64035;48.358;2.122;2023-02-18T07:17:13;5.95;;;1.80;;
75454;SDS011;64035;48.358;2.122;2023-02-18T07:18:16;4.93;;;1.90;;
75454;SDS011;64035;48.358;2.122;2023-02-18T07:19:19;4.50;;;1.90;;
75454;SDS011;64035;48.358;2.122;2023-02-18T07:20:23;5.82;;;1.98;;